Time;durP1;ratioP1;P1;durP2;ratioP2;P2;SDS_P1;SDS_P2;PMS_P1;PMS_P2;Temp;Humidity;BMP_temperature;BMP_pressure;BME280_temperature;BME280_humidity;BME280_pressure;Samples;Min_cycle;Max_cycle;Signal;HPM_P1;HPM_P2
2022/03/06 00:01:09;;;;;;;3.85;1.20;;;;;;;20.91;28.08;102746.75;4213514;28;20040;-45
2022/03/06 00:03:11;;;;;;;5.75;1.30;;;;;;;20.91;27.94;102743.97;4214217;28;20441;-48
2022/03/06 00:05:13;;;;;;;4.90;1.55;;;;;;;20.90;28.06;102743.13;4214030;28;20128;-45
2022/03/06 00:07:15;;;;;;;1.98;1.13;;;;;;;20.93;27.94;102741.78;4213838;28;20040;-48
2022/03/06 00:09:16;;;;;;;4.43;1.35;;;;;;;20.91;28.35;102733.69;4213879;28;20113;-49
2022/03/06 00:11:17;;;;;;;6.53;1.55;;;;;;;20.93;28.45;102739.84;4213392;28;20101;-48
2022/03/06 00:13:19;;;;;;;10.32;1.85;;;;;;;20.94;28.29;102733.22;4215059;28;20040;-46
2022/03/06 00:15:22;;;;;;;4.68;1.20;;;;;;;20.95;27.93;102736.84;4217429;28;20453;-50
2022/03/06 00:17:24;;;;;;;2.90;1.20;;;;;;;20.95;27.95;102739.66;4217206;28;20105;-45
2022/03/06 00:19:25;;;;;;;4.78;1.45;;;;;;;20.95;28.31;102728.50;4217261;28;20085;-44
2022/03/06 00:21:29;;;;;;;4.43;1.70;;;;;;;20.96;28.18;102735.75;4216662;28;20421;-44
2022/03/06 00:23:31;;;;;;;7.15;1.50;;;;;;;20.96;27.93;102733.81;4217194;28;20086;-46
2022/03/06 00:25:32;;;;;;;6.45;1.63;;;;;;;20.97;28.02;102732.72;4217273;28;20039;-46
2022/03/06 00:27:34;;;;;;;5.90;1.80;;;;;;;20.90;27.93;102714.47;4216699;28;20085;-51
2022/03/06 00:29:38;;;;;;;4.00;1.42;;;;;;;20.96;28.28;102727.41;4216946;28;20089;-46
2022/03/06 00:31:40;;;;;;;4.63;1.77;;;;;;;20.95;28.33;102722.94;4216865;28;20099;-48
2022/03/06 00:33:41;;;;;;;4.00;1.65;;;;;;;20.96;28.40;102719.91;4217149;28;20604;-45
2022/03/06 00:35:43;;;;;;;5.25;2.05;;;;;;;20.97;28.37;102720.75;4217065;28;20044;-49
2022/03/06 00:37:47;;;;;;;7.43;1.50;;;;;;;20.97;28.29;102717.97;4217205;28;20066;-47
2022/03/06 00:39:48;;;;;;;4.93;1.30;;;;;;;20.98;28.29;102716.88;4215352;28;20437;-50
2022/03/06 00:41:50;;;;;;;4.10;1.35;;;;;;;20.97;28.22;102713.25;4216535;28;20044;-50
2022/03/06 00:43:51;;;;;;;2.45;1.17;;;;;;;20.99;28.12;102707.47;4216544;28;20517;-48
2022/03/06 00:45:53;;;;;;;4.32;1.98;;;;;;;21.00;28.17;102704.44;4216691;28;20048;-48
2022/03/06 00:47:54;;;;;;;3.47;1.40;;;;;;;21.00;28.02;102698.03;4216694;28;20036;-47
2022/03/06 00:49:56;;;;;;;3.80;1.40;;;;;;;21.00;28.08;102704.44;4215644;28;20040;-47
2022/03/06 00:51:58;;;;;;;3.15;1.77;;;;;;;20.97;28.11;102692.94;4216467;28;20149;-47
2022/03/06 00:53:59;;;;;;;6.93;1.40;;;;;;;20.92;28.16;102678.88;4215119;28;20050;-49
2022/03/06 00:56:03;;;;;;;3.47;1.10;;;;;;;20.99;28.09;102691.63;4216585;28;20288;-49
2022/03/06 00:58:09;;;;;;;4.70;1.20;;;;;;;21.00;28.01;102693.31;4216844;28;20089;-47
2022/03/06 01:00:11;;;;;;;2.42;1.25;;;;;;;21.01;28.14;102688.59;4216424;28;20101;-48
2022/03/06 01:02:12;;;;;;;2.25;1.40;;;;;;;21.01;28.01;102689.44;4216239;28;20112;-49
2022/03/06 01:04:14;;;;;;;3.15;1.30;;;;;;;21.01;27.92;102688.59;4216687;28;20024;-48
2022/03/06 01:06:15;;;;;;;3.47;1.80;;;;;;;21.01;28.29;102680.22;4216760;28;20074;-47
2022/03/06 01:08:17;;;;;;;2.25;1.30;;;;;;;21.01;28.08;102677.44;4216542;28;20538;-44
2022/03/06 01:10:21;;;;;;;3.60;2.13;;;;;;;20.98;28.15;102670.44;4216756;28;20514;-49
2022/03/06 01:12:22;;;;;;;2.97;1.20;;;;;;;20.98;28.01;102667.66;4216355;28;20497;-46
2022/03/06 01:14:24;;;;;;;4.22;1.40;;;;;;;21.00;27.87;102672.97;4216528;28;20141;-49
2022/03/06 01:16:25;;;;;;;1.98;0.90;;;;;;;21.01;27.93;102674.66;4216611;28;20472;-50
2022/03/06 01:18:27;;;;;;;3.97;1.15;;;;;;;20.99;27.88;102668.50;4216458;28;20094;-51
2022/03/06 01:20:31;;;;;;;3.97;1.52;;;;;;;20.98;28.37;102661.22;4216214;28;20097;-46
2022/03/06 01:22:32;;;;;;;2.08;1.10;;;;;;;20.97;28.07;102654.81;4216467;28;20044;-47
2022/03/06 01:24:34;;;;;;;3.55;1.45;;;;;;;20.99;28.12;102661.00;4215196;28;20028;-48
2022/03/06 01:26:35;;;;;;;3.63;1.10;;;;;;;20.99;28.27;102657.38;4216561;28;20097;-48
2022/03/06 01:28:37;;;;;;;3.15;1.20;;;;;;;21.00;27.85;102647.94;4216550;28;20028;-46
2022/03/06 01:30:38;;;;;;;2.95;1.13;;;;;;;20.98;28.25;102644.53;4216038;28;20089;-45
2022/03/06 01:32:39;;;;;;;2.88;1.25;;;;;;;20.99;28.19;102641.53;4216303;28;20048;-48
2022/03/06 01:34:41;;;;;;;2.55;1.27;;;;;;;20.96;28.03;102642.00;4216557;28;20085;-47
2022/03/06 01:36:43;;;;;;;3.03;1.60;;;;;;;20.98;27.90;102638.94;4215265;28;20121;-45
2022/03/06 01:38:44;;;;;;;2.72;1.40;;;;;;;20.99;27.93;102635.09;4216349;28;20036;-48
2022/03/06 01:40:46;;;;;;;4.28;1.35;;;;;;;20.99;27.79;102629.53;4215583;28;20121;-47
2022/03/06 01:42:49;;;;;;;3.70;1.55;;;;;;;20.96;27.94;102630.00;4215876;28;20085;-46
2022/03/06 01:44:53;;;;;;;4.07;1.30;;;;;;;20.94;27.99;102618.28;4216015;28;20032;-45
2022/03/06 01:47:04;;;;;;;3.08;1.42;;;;;;;20.99;28.23;102626.75;4215871;28;20437;-45
2022/03/06 01:49:06;;;;;;;4.13;1.08;;;;;;;20.95;28.18;102611.63;4216182;28;20028;-51
2022/03/06 01:51:07;;;;;;;2.90;1.02;;;;;;;20.99;28.31;102610.06;4215700;28;20146;-50
2022/03/06 01:53:10;;;;;;;6.22;1.80;;;;;;;20.97;28.09;102603.88;4215934;28;20044;-45
2022/03/06 01:55:16;;;;;;;3.33;1.15;;;;;;;20.95;28.04;102606.91;4215868;28;20047;-47
2022/03/06 01:57:17;;;;;;;2.47;1.30;;;;;;;20.97;28.11;102615.00;4215996;28;20433;-48
2022/03/06 01:59:32;;;;;;;2.17;1.20;;;;;;;20.88;28.17;102589.47;4215997;28;20027;-48
2022/03/06 02:01:34;;;;;;;2.90;1.30;;;;;;;20.95;28.41;102594.94;4215875;28;20040;-43
2022/03/06 02:03:35;;;;;;;6.35;1.17;;;;;;;20.98;28.43;102611.13;4215590;28;20040;-48
2022/03/06 02:05:38;;;;;;;1.88;1.17;;;;;;;20.98;28.03;102602.78;4215844;28;20040;-46
2022/03/06 02:07:40;;;;;;;3.10;1.63;;;;;;;20.98;28.12;102600.88;4215884;28;20032;-48
2022/03/06 02:09:41;;;;;;;2.53;1.33;;;;;;;20.99;28.20;102596.16;4215952;28;20023;-45
2022/03/06 02:11:43;;;;;;;3.72;1.50;;;;;;;20.98;28.35;102600.00;4215315;28;20040;-48
2022/03/06 02:13:45;;;;;;;2.63;1.10;;;;;;;20.97;28.10;102603.88;4215977;28;20101;-48
2022/03/06 02:15:47;;;;;;;2.63;0.98;;;;;;;20.99;28.12;102607.28;4216081;28;20449;-49
2022/03/06 02:17:49;;;;;;;3.13;1.10;;;;;;;20.97;28.20;102603.88;4215751;28;20093;-46
2022/03/06 02:20:05;;;;;;;1.92;0.95;;;;;;;20.96;28.08;102599.41;4215455;28;20048;-45
2022/03/06 02:22:06;;;;;;;4.43;1.30;;;;;;;20.96;28.10;102596.63;4215281;28;20048;-47
2022/03/06 02:24:10;;;;;;;2.75;1.50;;;;;;;20.95;27.85;102584.63;4215589;28;20093;-45
2022/03/06 02:26:12;;;;;;;2.08;1.30;;;;;;;20.94;27.86;102590.47;4215434;28;20196;-47
2022/03/06 02:28:13;;;;;;;1.33;1.02;;;;;;;20.94;28.23;102580.16;4215656;28;20356;-46
2022/03/06 02:30:20;;;;;;;4.15;1.40;;;;;;;20.96;28.07;102574.34;4215380;28;20446;-48
2022/03/06 02:32:23;;;;;;;2.05;1.15;;;;;;;20.97;28.28;102570.47;4215170;28;20040;-43
2022/03/06 02:34:28;;;;;;;2.20;1.02;;;;;;;20.96;27.93;102571.56;4215733;28;20094;-44
2022/03/06 02:36:32;;;;;;;3.53;1.40;;;;;;;20.77;28.00;102538.31;4213344;28;20388;-46
2022/03/06 02:38:34;;;;;;;2.17;1.20;;;;;;;20.94;27.97;102551.50;4215396;28;20090;-47
2022/03/06 02:40:42;;;;;;;2.03;1.00;;;;;;;20.96;27.90;102547.38;4214773;28;20044;-47
2022/03/06 02:42:46;;;;;;;2.55;1.40;;;;;;;20.96;27.95;102550.16;4215536;28;20043;-47
2022/03/06 02:44:47;;;;;;;3.92;1.17;;;;;;;20.95;28.24;102542.06;4215199;28;20101;-46
2022/03/06 02:46:49;;;;;;;2.50;1.23;;;;;;;20.96;28.31;102540.97;4215112;28;20090;-49
2022/03/06 02:48:50;;;;;;;2.97;1.40;;;;;;;20.95;28.46;102533.72;4215137;28;20097;-46
2022/03/06 02:50:53;;;;;;;2.55;1.10;;;;;;;20.94;28.00;102537.59;4215220;28;20048;-44
2022/03/06 02:52:56;;;;;;;2.40;1.20;;;;;;;20.95;28.07;102528.13;4215191;28;20028;-44
2022/03/06 02:54:58;;;;;;;2.70;1.00;;;;;;;20.94;28.15;102530.09;4215346;28;20040;-47
2022/03/06 02:56:59;;;;;;;4.53;1.38;;;;;;;20.92;28.21;102523.06;4215257;28;20062;-49
2022/03/06 02:59:01;;;;;;;1.80;1.02;;;;;;;20.90;28.17;102505.75;4215277;28;20097;-47
2022/03/06 03:01:02;;;;;;;5.28;1.50;;;;;;;20.92;28.23;102506.34;4214713;28;20489;-44
2022/03/06 03:03:04;;;;;;;1.40;1.00;;;;;;;20.92;28.30;102498.00;4215039;28;20032;-44
2022/03/06 03:05:12;;;;;;;3.00;1.10;;;;;;;20.93;27.97;102499.69;4213717;28;20453;-46
2022/03/06 03:07:13;;;;;;;2.25;1.30;;;;;;;20.93;28.18;102496.91;4214741;28;20040;-45
2022/03/06 03:09:15;;;;;;;3.70;1.35;;;;;;;20.92;27.92;102501.63;4214645;28;20124;-47
2022/03/06 03:11:16;;;;;;;2.15;1.10;;;;;;;20.92;28.03;102492.44;4214069;28;20457;-46
2022/03/06 03:13:17;;;;;;;3.78;1.25;;;;;;;20.92;28.34;102489.66;4214686;28;20040;-44
2022/03/06 03:15:19;;;;;;;2.05;1.10;;;;;;;20.93;28.22;102491.34;4214612;28;20425;-47
2022/03/06 03:17:21;;;;;;;2.33;1.08;;;;;;;20.84;28.21;102476.94;4214649;28;20094;-44
2022/03/06 03:19:22;;;;;;;2.60;1.17;;;;;;;20.92;28.10;102495.22;4214765;28;20127;-46
2022/03/06 03:21:23;;;;;;;2.53;1.10;;;;;;;20.88;28.21;102494.00;4214300;28;20429;-48
2022/03/06 03:23:25;;;;;;;3.35;1.00;;;;;;;20.90;28.16;102503.81;4213263;28;20446;-44
2022/03/06 03:25:26;;;;;;;3.45;1.10;;;;;;;20.90;28.08;102491.84;4214645;28;20471;-50
2022/03/06 03:27:28;;;;;;;3.05;1.10;;;;;;;20.91;27.90;102477.69;4214375;28;20472;-46
2022/03/06 03:29:29;;;;;;;1.45;0.90;;;;;;;20.92;28.16;102461.84;4213250;28;20089;-45
2022/03/06 03:31:30;;;;;;;2.53;1.05;;;;;;;20.92;28.39;102456.25;4214625;28;20039;-45
2022/03/06 03:33:32;;;;;;;1.65;0.88;;;;;;;20.90;28.25;102459.31;4214557;28;20089;-46
2022/03/06 03:35:33;;;;;;;1.73;1.00;;;;;;;20.91;27.95;102457.38;4214483;28;20449;-45
2022/03/06 03:37:35;;;;;;;3.08;1.05;;;;;;;20.87;28.30;102442.25;4214299;28;20044;-45
2022/03/06 03:39:37;;;;;;;2.80;0.95;;;;;;;20.86;28.08;102435.84;4214775;28;20113;-46
2022/03/06 03:41:41;;;;;;;2.30;0.88;;;;;;;20.87;28.28;102436.69;4214540;28;20047;-46
2022/03/06 03:43:42;;;;;;;1.90;0.90;;;;;;;20.81;28.43;102428.22;4214442;28;20129;-50
2022/03/06 03:45:43;;;;;;;1.55;0.98;;;;;;;20.88;28.43;102432.78;4214344;28;20073;-45
2022/03/06 03:47:45;;;;;;;2.05;1.05;;;;;;;20.86;28.34;102423.88;4214038;28;20077;-47
2022/03/06 03:49:46;;;;;;;2.40;1.20;;;;;;;20.87;28.27;102425.53;4214218;28;20093;-46
2022/03/06 03:51:48;;;;;;;3.10;1.10;;;;;;;20.87;28.08;102428.31;4213955;28;20094;-46
2022/03/06 03:53:49;;;;;;;4.00;1.73;;;;;;;20.88;28.06;102427.22;4214074;28;20200;-46
2022/03/06 03:55:52;;;;;;;1.98;1.20;;;;;;;20.88;28.18;102416.09;4214170;28;20040;-45
2022/03/06 03:57:59;;;;;;;2.05;1.48;;;;;;;20.87;28.38;102414.41;4214165;28;20101;-50
2022/03/06 04:00:00;;;;;;;1.50;1.15;;;;;;;20.86;28.11;102408.00;4212998;28;20482;-46
2022/03/06 04:02:02;;;;;;;2.72;1.10;;;;;;;20.83;28.37;102399.31;4214075;28;20032;-44
2022/03/06 04:04:04;;;;;;;1.92;1.08;;;;;;;20.87;28.14;102404.13;4214558;28;20044;-49
2022/03/06 04:06:05;;;;;;;2.30;1.00;;;;;;;20.87;28.14;102408.84;4214168;28;20430;-45
2022/03/06 04:08:10;;;;;;;3.25;1.00;;;;;;;20.86;28.41;102413.56;4214174;28;20036;-45
2022/03/06 04:10:12;;;;;;;2.50;1.10;;;;;;;20.85;28.41;102411.03;4214154;28;20032;-43
2022/03/06 04:12:13;;;;;;;4.10;1.00;;;;;;;20.86;28.10;102396.03;4213794;28;20390;-50
2022/03/06 04:14:15;;;;;;;1.63;1.00;;;;;;;20.86;28.12;102404.38;4214091;28;20521;-49
2022/03/06 04:16:17;;;;;;;2.15;1.10;;;;;;;20.86;28.11;102396.03;4213957;28;20125;-48
2022/03/06 04:18:19;;;;;;;2.83;1.20;;;;;;;20.85;28.36;102394.31;4214232;28;20044;-46
2022/03/06 04:20:21;;;;;;;2.97;1.10;;;;;;;20.86;28.11;102396.03;4213356;28;20414;-49
2022/03/06 04:22:22;;;;;;;1.50;1.20;;;;;;;20.83;27.96;102390.97;4213617;28;20908;-45
2022/03/06 04:24:23;;;;;;;2.10;1.00;;;;;;;20.84;28.09;102387.06;4213833;28;20105;-45
2022/03/06 04:26:25;;;;;;;1.67;1.23;;;;;;;20.84;28.43;102392.63;4214013;28;20036;-46
2022/03/06 04:28:26;;;;;;;1.40;0.98;;;;;;;20.83;28.46;102386.22;4212779;28;20105;-48
2022/03/06 04:30:28;;;;;;;1.83;1.17;;;;;;;20.83;28.37;102382.59;4213976;28;20048;-46
2022/03/06 04:32:29;;;;;;;2.20;1.60;;;;;;;20.84;28.56;102378.72;4214069;28;20471;-46
2022/03/06 04:34:31;;;;;;;2.50;1.50;;;;;;;20.83;28.29;102379.81;4212902;28;20024;-45
2022/03/06 04:36:32;;;;;;;1.85;1.30;;;;;;;20.80;28.14;102382.03;4214010;28;20102;-45
2022/03/06 04:38:34;;;;;;;1.30;1.08;;;;;;;20.81;28.08;102380.94;4213883;28;20040;-47
2022/03/06 04:40:35;;;;;;;1.30;1.20;;;;;;;20.81;28.08;102372.56;4213721;28;20369;-46
2022/03/06 04:42:37;;;;;;;3.45;1.30;;;;;;;20.81;27.96;102378.13;4213938;28;20043;-45
2022/03/06 04:44:39;;;;;;;2.70;1.00;;;;;;;20.76;28.14;102357.72;4213586;28;20097;-49
2022/03/06 04:46:40;;;;;;;2.75;1.10;;;;;;;20.80;28.25;102364.47;4213858;28;20458;-45
2022/03/06 04:48:41;;;;;;;1.25;1.00;;;;;;;20.81;28.31;102355.88;4213908;28;20044;-49
2022/03/06 04:50:43;;;;;;;1.60;1.10;;;;;;;20.80;28.25;102356.09;4207352;28;20040;-46
2022/03/06 04:52:45;;;;;;;3.15;1.27;;;;;;;20.80;28.54;102344.97;4197014;28;20079;-48
2022/03/06 04:54:46;;;;;;;2.85;1.00;;;;;;;20.77;28.25;102349.13;4197072;28;20040;-44
2022/03/06 04:56:48;;;;;;;3.42;1.63;;;;;;;20.79;28.53;102335.78;4197249;28;20024;-46
2022/03/06 04:58:49;;;;;;;3.47;1.40;;;;;;;20.78;28.28;102333.28;4197641;28;20491;-45
2022/03/06 05:00:53;;;;;;;1.88;1.20;;;;;;;20.76;28.21;102327.97;4200182;28;20041;-51
2022/03/06 05:02:55;;;;;;;2.20;1.30;;;;;;;20.79;28.09;102323.81;4198792;28;20457;-46
2022/03/06 05:04:56;;;;;;;1.85;1.25;;;;;;;20.76;28.23;102330.75;4199935;28;20094;-45
2022/03/06 05:06:58;;;;;;;2.70;1.13;;;;;;;20.76;28.63;102327.97;4203204;28;20098;-46
2022/03/06 05:08:59;;;;;;;2.10;1.45;;;;;;;20.77;28.10;102329.66;4200478;28;20097;-50
2022/03/06 05:11:04;;;;;;;1.63;1.40;;;;;;;20.75;28.55;102312.34;4199270;28;20458;-51
2022/03/06 05:13:05;;;;;;;1.80;1.30;;;;;;;20.76;28.36;102314.06;4200319;28;20086;-46
2022/03/06 05:15:10;;;;;;;2.92;1.50;;;;;;;20.75;28.61;102305.94;4200046;28;20033;-49
2022/03/06 05:17:16;;;;;;;4.15;1.40;;;;;;;20.73;28.26;102300.63;4198272;28;20089;-46
2022/03/06 05:19:17;;;;;;;1.50;1.30;;;;;;;20.71;28.28;102300.03;4199610;28;20040;-46
2022/03/06 05:21:18;;;;;;;1.73;1.08;;;;;;;20.72;28.41;102301.72;4199442;28;20530;-47
2022/03/06 05:23:20;;;;;;;2.80;1.40;;;;;;;20.73;28.45;102297.84;4199918;28;20024;-45
2022/03/06 05:25:22;;;;;;;3.03;1.88;;;;;;;20.73;28.00;102300.63;4199769;28;20086;-46
2022/03/06 05:27:23;;;;;;;2.63;1.60;;;;;;;20.73;28.47;102283.94;4199825;28;20036;-46
2022/03/06 05:29:25;;;;;;;2.45;1.50;;;;;;;20.71;28.67;102283.34;4200055;28;20044;-49
2022/03/06 05:31:26;;;;;;;1.60;1.42;;;;;;;20.73;28.38;102281.16;4198997;28;20097;-46
2022/03/06 05:33:30;;;;;;;1.75;1.60;;;;;;;20.72;28.39;102273.06;4199725;28;20051;-46
2022/03/06 05:35:32;;;;;;;2.97;1.73;;;;;;;20.65;28.60;102273.19;4199413;28;20415;-46
2022/03/06 05:37:33;;;;;;;2.20;1.55;;;;;;;20.67;28.34;102264.63;4199727;28;20033;-44
2022/03/06 05:39:34;;;;;;;2.47;1.70;;;;;;;20.68;28.37;102267.16;4198150;28;20028;-49
2022/03/06 05:41:36;;;;;;;2.85;1.40;;;;;;;20.68;28.57;102267.16;4199030;28;20041;-45
2022/03/06 05:43:41;;;;;;;3.03;1.42;;;;;;;20.69;28.52;102268.00;4199460;28;20040;-46
2022/03/06 05:45:42;;;;;;;3.28;1.50;;;;;;;20.65;28.44;102255.66;4199769;28;20047;-45
2022/03/06 05:47:44;;;;;;;2.58;1.45;;;;;;;20.68;28.38;102264.38;4197959;28;20106;-49
2022/03/06 05:49:45;;;;;;;3.58;1.52;;;;;;;20.65;28.34;102247.31;4198112;28;20514;-47
2022/03/06 05:51:49;;;;;;;1.75;1.48;;;;;;;20.68;28.57;102256.03;4198944;28;20490;-47
2022/03/06 05:53:51;;;;;;;4.45;1.77;;;;;;;20.68;28.51;102263.53;4199218;28;20025;-46
2022/03/06 05:55:52;;;;;;;1.85;1.25;;;;;;;20.68;28.66;102249.63;4199186;28;20040;-49
2022/03/06 05:57:53;;;;;;;2.08;1.48;;;;;;;20.66;28.60;102240.66;4199274;28;20152;-47
2022/03/06 05:59:55;;;;;;;2.72;1.50;;;;;;;20.65;28.45;102242.59;4199068;28;20032;-45
2022/03/06 06:01:59;;;;;;;2.63;1.85;;;;;;;20.65;28.43;102238.97;4198918;28;20045;-45
2022/03/06 06:04:04;;;;;;;1.60;1.20;;;;;;;20.64;28.71;102238.13;4199509;28;20040;-45
2022/03/06 06:06:05;;;;;;;;;;;;;;;20.62;28.73;102240.34;4199760;28;20471;-44
2022/03/06 06:08:12;;;;;;;2.08;1.50;;;;;;;20.69;28.58;102238.22;4210078;28;20007;-45
2022/03/06 06:10:14;;;;;;;2.63;1.73;;;;;;;20.69;28.41;102229.88;4204914;28;20115;-44
2022/03/06 06:12:15;;;;;;;2.25;1.58;;;;;;;20.68;28.29;102227.38;4213084;28;20085;-47
2022/03/06 06:14:17;;;;;;;1.88;1.40;;;;;;;20.66;28.35;102232.31;4211377;28;20028;-46
2022/03/06 06:16:18;;;;;;;2.53;1.58;;;;;;;20.63;28.83;102225.31;4215681;28;20109;-45
2022/03/06 06:18:19;;;;;;;2.17;1.85;;;;;;;20.62;28.50;102218.09;4215379;28;20097;-47
2022/03/06 06:20:21;;;;;;;3.10;1.70;;;;;;;20.61;28.38;102221.94;4215680;28;20484;-45
2022/03/06 06:22:22;;;;;;;1.83;1.58;;;;;;;20.61;28.76;102213.59;4215374;28;20090;-45
2022/03/06 06:24:24;;;;;;;2.22;1.70;;;;;;;20.62;28.83;102206.09;4215943;28;20484;-48
2022/03/06 06:26:25;;;;;;;2.15;1.63;;;;;;;20.61;28.39;102208.03;4215457;28;20441;-45
2022/03/06 06:28:27;;;;;;;2.78;1.98;;;;;;;20.61;28.61;102208.03;4215410;28;20035;-47
2022/03/06 06:30:28;;;;;;;2.40;1.60;;;;;;;20.59;28.76;102201.88;4215396;28;20035;-45
2022/03/06 06:32:30;;;;;;;3.42;1.50;;;;;;;20.60;28.74;102198.00;4215641;28;20097;-47
2022/03/06 06:34:31;;;;;;;2.63;1.45;;;;;;;20.56;28.91;102192.09;4215434;28;20040;-47
2022/03/06 06:36:33;;;;;;;1.85;1.45;;;;;;;20.58;28.59;102200.19;4215408;28;20035;-46
2022/03/06 06:38:34;;;;;;;1.60;1.40;;;;;;;20.51;28.63;102182.81;4209665;28;20133;-45
2022/03/06 06:40:36;;;;;;;2.55;1.70;;;;;;;20.57;28.52;102181.81;4214854;28;20135;-52
2022/03/06 06:42:37;;;;;;;2.75;2.10;;;;;;;20.55;28.77;102181.22;4214795;28;20475;-47
2022/03/06 06:44:38;;;;;;;2.13;1.58;;;;;;;20.56;28.68;102174.56;4215570;28;20032;-45
2022/03/06 06:46:40;;;;;;;2.70;1.73;;;;;;;20.55;28.56;102178.44;4215122;28;20147;-49
2022/03/06 06:48:41;;;;;;;2.28;1.80;;;;;;;20.56;28.61;102180.97;4215295;28;20341;-51
2022/03/06 06:50:43;;;;;;;3.05;1.98;;;;;;;20.53;28.53;102166.75;4214191;28;20040;-47
2022/03/06 06:52:44;;;;;;;3.00;2.00;;;;;;;20.58;28.86;102172.38;4215355;28;20036;-45
2022/03/06 06:54:46;;;;;;;2.78;1.73;;;;;;;20.56;28.72;102164.28;4214429;28;20039;-50
2022/03/06 06:56:47;;;;;;;2.83;2.17;;;;;;;20.56;28.81;102152.31;4215104;28;20389;-46
2022/03/06 06:58:49;;;;;;;2.53;1.60;;;;;;;20.55;28.63;102150.63;4215403;28;20039;-46
2022/03/06 07:00:50;;;;;;;2.97;1.92;;;;;;;20.55;28.80;102153.41;4214940;28;20400;-47
2022/03/06 07:02:52;;;;;;;2.85;1.90;;;;;;;20.55;28.49;102147.84;4214828;28;20028;-47
2022/03/06 07:04:54;;;;;;;4.10;2.08;;;;;;;20.53;28.56;102144.50;4214892;28;20036;-48
2022/03/06 07:06:56;;;;;;;3.00;1.90;;;;;;;20.53;28.85;102148.13;4215145;28;20044;-44
2022/03/06 07:08:57;;;;;;;1.92;1.55;;;;;;;20.52;28.78;102146.41;4214356;28;20093;-49
2022/03/06 07:10:59;;;;;;;2.85;2.00;;;;;;;20.53;28.53;102144.50;4207057;28;20078;-46
2022/03/06 07:13:00;;;;;;;2.90;2.00;;;;;;;20.52;28.64;102140.00;4214878;28;20040;-46
2022/03/06 07:15:02;;;;;;;2.53;2.00;;;;;;;20.51;28.60;102138.31;4214007;28;20089;-47
2022/03/06 07:17:04;;;;;;;2.10;1.75;;;;;;;20.51;28.62;102136.38;4213842;28;20105;-50
2022/03/06 07:19:05;;;;;;;3.13;2.03;;;;;;;20.50;28.53;102131.06;4214038;28;20093;-47
2022/03/06 07:21:06;;;;;;;3.08;1.77;;;;;;;20.49;28.87;102121.06;4209604;28;20040;-46
2022/03/06 07:23:08;;;;;;;2.95;1.90;;;;;;;20.49;28.82;102123.84;4213354;28;20109;-44
2022/03/06 07:25:09;;;;;;;2.78;1.90;;;;;;;20.50;28.72;102112.44;4214335;28;20097;-46
2022/03/06 07:27:11;;;;;;;2.92;2.10;;;;;;;20.50;28.95;102108.84;4214543;28;20109;-45
2022/03/06 07:29:12;;;;;;;2.60;1.85;;;;;;;20.48;29.06;102105.44;4214364;28;20109;-49
2022/03/06 07:31:13;;;;;;;3.42;2.15;;;;;;;20.49;28.46;102108.00;4213916;28;20101;-48
2022/03/06 07:33:15;;;;;;;2.63;1.83;;;;;;;20.50;29.08;102103.28;4214107;28;20040;-46
2022/03/06 07:35:18;;;;;;;4.32;2.55;;;;;;;20.47;29.04;102100.94;4214518;28;20090;-44
2022/03/06 07:37:20;;;;;;;4.00;2.42;;;;;;;20.47;28.74;102098.16;4214015;28;20048;-49
2022/03/06 07:39:21;;;;;;;3.63;2.00;;;;;;;20.44;29.07;102082.00;4213803;28;20463;-45
2022/03/06 07:41:23;;;;;;;2.75;2.22;;;;;;;20.44;28.95;102080.06;4214219;28;20028;-46
2022/03/06 07:43:24;;;;;;;4.15;2.10;;;;;;;20.45;28.95;102072.56;4214359;28;20036;-44
2022/03/06 07:45:26;;;;;;;4.07;2.05;;;;;;;20.45;28.92;102078.97;4213609;28;20077;-44
2022/03/06 07:47:28;;;;;;;3.10;2.20;;;;;;;20.47;28.82;102064.81;4213382;28;20097;-43
2022/03/06 07:49:29;;;;;;;5.95;2.17;;;;;;;20.47;29.06;102062.03;4214406;28;20028;-47
2022/03/06 07:51:30;;;;;;;5.10;2.20;;;;;;;20.46;29.15;102057.56;4205128;28;20126;-43
2022/03/06 07:53:32;;;;;;;3.65;1.80;;;;;;;20.43;28.96;102046.94;4210024;28;20036;-45
2022/03/06 07:55:33;;;;;;;2.97;1.83;;;;;;;20.46;29.04;102038.09;4196817;28;20109;-46
2022/03/06 07:57:35;;;;;;;3.17;2.10;;;;;;;20.46;29.03;102040.88;4210615;28;20044;-48
2022/03/06 07:59:36;;;;;;;2.75;2.15;;;;;;;20.46;29.05;102038.09;4213391;28;20070;-49
2022/03/06 08:01:38;;;;;;;2.97;2.00;;;;;;;20.44;29.29;102041.13;4213836;28;20097;-45
2022/03/06 08:03:39;;;;;;;2.67;1.90;;;;;;;20.45;29.15;102039.19;4214232;28;20040;-47
2022/03/06 08:05:40;;;;;;;4.78;2.10;;;;;;;20.45;29.25;102041.97;4213803;28;20044;-47
2022/03/06 08:07:42;;;;;;;2.95;2.08;;;;;;;20.46;29.17;102046.44;4207994;28;20044;-44
2022/03/06 08:09:43;;;;;;;4.40;2.10;;;;;;;20.43;29.53;102035.81;4214081;28;20024;-46
2022/03/06 08:11:48;;;;;;;4.05;2.35;;;;;;;20.44;29.45;102037.53;4213805;28;20048;-44
2022/03/06 08:13:49;;;;;;;4.32;2.30;;;;;;;20.41;29.73;102022.16;4214463;28;20036;-44
2022/03/06 08:15:50;;;;;;;5.93;2.75;;;;;;;20.46;29.66;102032.53;4214267;28;20032;-44
2022/03/06 08:17:52;;;;;;;3.22;2.05;;;;;;;20.46;29.76;102027.81;4213283;28;20188;-45
2022/03/06 08:19:53;;;;;;;3.90;2.22;;;;;;;20.48;29.61;102022.91;4214427;28;20086;-44
2022/03/06 08:21:55;;;;;;;4.22;2.10;;;;;;;20.49;29.72;102015.41;4213496;28;20101;-44
2022/03/06 08:23:56;;;;;;;4.10;2.42;;;;;;;20.50;29.96;102017.91;4214448;28;20039;-43
2022/03/06 08:25:58;;;;;;;4.43;2.20;;;;;;;20.48;29.52;102010.91;4213982;28;20487;-43
2022/03/06 08:28:00;;;;;;;4.55;2.30;;;;;;;20.51;29.58;102013.19;4213469;28;20040;-44
2022/03/06 08:30:04;;;;;;;5.07;2.75;;;;;;;20.50;29.46;102017.06;4213639;28;20105;-45
2022/03/06 08:32:06;;;;;;;6.50;2.70;;;;;;;20.51;29.65;102016.81;4213434;28;20032;-50
2022/03/06 08:34:07;;;;;;;6.72;2.38;;;;;;;20.52;29.94;102024.03;4214868;28;20418;-45
2022/03/06 08:36:09;;;;;;;3.40;2.13;;;;;;;20.53;29.64;102019.34;4200670;28;20045;-45
2022/03/06 08:38:10;;;;;;;4.78;2.05;;;;;;;20.54;29.75;102021.03;4210755;28;20487;-45
2022/03/06 08:40:11;;;;;;;4.32;2.25;;;;;;;20.53;29.80;102017.41;4216133;28;20093;-47
2022/03/06 08:42:13;;;;;;;3.20;2.45;;;;;;;20.55;29.79;102017.16;4213500;28;20137;-44
2022/03/06 08:44:18;;;;;;;4.13;2.20;;;;;;;20.53;30.12;102011.84;4217675;28;20031;-45
2022/03/06 08:46:19;;;;;;;12.00;2.57;;;;;;;20.55;29.84;102017.16;4217462;28;20017;-47
2022/03/06 08:48:21;;;;;;;7.43;2.60;;;;;;;20.54;30.06;102010.75;4217205;28;20525;-44
2022/03/06 08:50:22;;;;;;;3.63;2.35;;;;;;;20.55;29.89;102011.59;4217284;28;20101;-46
2022/03/06 08:52:24;;;;;;;4.43;2.20;;;;;;;20.56;29.93;102002.16;4217101;28;20036;-46
2022/03/06 08:54:25;;;;;;;3.38;2.80;;;;;;;20.53;29.99;102003.50;4217005;28;20036;-47
2022/03/06 08:56:27;;;;;;;5.00;2.67;;;;;;;20.54;29.95;101993.22;4216781;28;20043;-47
2022/03/06 08:58:28;;;;;;;3.90;2.08;;;;;;;20.53;29.78;101981.28;4216826;28;20196;-46
2022/03/06 09:00:30;;;;;;;3.55;2.28;;;;;;;20.54;29.80;101987.66;4216861;28;20036;-44
2022/03/06 09:02:31;;;;;;;6.57;2.95;;;;;;;20.52;29.78;101982.34;4216978;28;20048;-45
2022/03/06 09:04:33;;;;;;;5.40;2.40;;;;;;;20.51;29.77;101971.47;4216896;28;20085;-44
2022/03/06 09:06:35;;;;;;;3.92;2.40;;;;;;;20.50;30.40;101976.19;4217018;28;20035;-48
2022/03/06 09:08:36;;;;;;;4.57;2.30;;;;;;;20.47;29.95;101975.81;4215443;28;20044;-47
2022/03/06 09:10:39;;;;;;;4.53;2.38;;;;;;;20.51;29.83;101982.59;4216462;28;20073;-45
2022/03/06 09:12:41;;;;;;;4.35;2.10;;;;;;;20.51;30.44;101982.59;4216225;28;20036;-45
2022/03/06 09:14:42;;;;;;;4.82;2.17;;;;;;;20.50;30.08;101980.94;4216107;28;20548;-49
2022/03/06 09:16:46;;;;;;;4.60;2.53;;;;;;;20.52;30.10;101973.16;4216397;28;20044;-44
2022/03/06 09:18:49;;;;;;;5.10;2.58;;;;;;;20.50;30.08;101969.81;4216542;28;20035;-46
2022/03/06 09:20:53;;;;;;;6.20;2.55;;;;;;;20.50;30.12;101975.38;4216175;28;20105;-45
2022/03/06 09:22:58;;;;;;;4.13;2.47;;;;;;;20.49;30.00;101963.41;4216528;28;20043;-47
2022/03/06 09:24:59;;;;;;;2.63;1.73;;;;;;;20.45;30.39;101955.78;4216483;28;20784;-44
2022/03/06 09:27:00;;;;;;;5.13;1.88;;;;;;;20.51;30.14;101960.34;4216445;28;20089;-45